createdAt,value
2023-04-19T00:03:56.893Z,18.95
2023-04-19T00:08:58.674Z,19.30
2023-04-19T00:14:00.319Z,15.48
2023-04-19T00:19:02.339Z,14.38
2023-04-19T00:24:04.134Z,16.40
2023-04-19T00:29:05.781Z,17.83
2023-04-19T00:34:08.312Z,15.85
2023-04-19T00:39:09.942Z,14.18
2023-04-19T00:44:13.638Z,13.95
2023-04-19T00:49:17.606Z,14.43
2023-04-19T00:54:20.443Z,13.25
2023-04-19T00:59:25.017Z,12.27
2023-04-19T01:04:27.071Z,10.85
2023-04-19T01:09:28.754Z,12.27
2023-04-19T01:14:32.496Z,10.77
2023-04-19T01:19:35.002Z,12.20
2023-04-19T01:24:36.727Z,13.57
2023-04-19T01:29:38.447Z,12.90
2023-04-19T01:34:40.341Z,12.82
2023-04-19T01:39:42.040Z,13.70
2023-04-19T01:44:43.668Z,12.05
2023-04-19T01:49:45.506Z,12.68
2023-04-19T01:54:47.158Z,12.55
2023-04-19T01:59:50.466Z,13.90
2023-04-19T02:04:52.114Z,15.07
2023-04-19T02:09:53.798Z,10.82
2023-04-19T02:14:59.582Z,17.20
2023-04-19T02:20:09.706Z,9.85
2023-04-19T02:25:11.419Z,13.18
2023-04-19T02:30:13.331Z,16.58
2023-04-19T02:35:15.222Z,14.68
2023-04-19T02:40:16.938Z,15.40
2023-04-19T02:45:18.577Z,14.00
2023-04-19T02:50:21.660Z,12.95
2023-04-19T02:55:25.518Z,10.02
2023-04-19T03:00:37.243Z,12.40
2023-04-19T03:05:44.530Z,13.73
2023-04-19T03:10:46.274Z,16.55
2023-04-19T03:15:48.763Z,14.45
2023-04-19T03:20:53.689Z,11.90
2023-04-19T03:25:56.800Z,15.57
2023-04-19T03:31:06.662Z,19.80
2023-04-19T03:36:08.618Z,17.52
2023-04-19T03:41:21.636Z,19.05
2023-04-19T03:46:31.574Z,20.98
2023-04-19T03:51:34.496Z,17.40
2023-04-19T03:56:36.200Z,15.98
2023-04-19T04:01:42.131Z,18.75
2023-04-19T04:06:44.336Z,17.70
2023-04-19T04:11:48.449Z,20.20
2023-04-19T04:16:50.623Z,18.63
2023-04-19T04:21:52.457Z,19.27
2023-04-19T04:26:54.748Z,16.75
2023-04-19T04:32:10.615Z,17.08
2023-04-19T04:37:16.387Z,17.58
2023-04-19T04:42:21.544Z,18.67
2023-04-19T04:47:23.537Z,18.50
2023-04-19T04:52:29.596Z,20.20
2023-04-19T04:57:52.005Z,15.75
2023-04-19T05:03:00.515Z,12.13
2023-04-19T05:08:04.031Z,12.85
2023-04-19T05:13:06.490Z,10.65
2023-04-19T05:18:08.726Z,16.95
2023-04-19T05:23:11.662Z,11.88
2023-04-19T05:28:14.208Z,22.17
2023-04-19T05:33:26.650Z,15.30
2023-04-19T05:38:30.629Z,14.00
2023-04-19T05:43:36.576Z,13.18
2023-04-19T05:48:38.782Z,13.15
2023-04-19T05:54:03.695Z,13.80
2023-04-19T05:59:06.679Z,10.02
2023-04-19T06:04:08.493Z,5.10
2023-04-19T06:09:12.433Z,8.00
2023-04-19T06:14:15.992Z,4.22
2023-04-19T06:19:19.006Z,4.93
2023-04-19T06:24:20.746Z,4.03
2023-04-19T06:29:23.808Z,3.50
2023-04-19T06:34:25.570Z,6.57
2023-04-19T06:39:27.800Z,3.78
2023-04-19T06:44:29.780Z,4.72
2023-04-19T06:49:31.655Z,5.53
2023-04-19T06:54:33.272Z,5.05
2023-04-19T06:59:35.385Z,3.40
2023-04-19T07:04:37.423Z,2.35
2023-04-19T07:09:39.233Z,4.18
2023-04-19T07:14:40.951Z,3.65
2023-04-19T07:19:42.575Z,5.47
2023-04-19T07:24:44.667Z,2.33
2023-04-19T07:29:46.832Z,4.88
2023-04-19T07:34:48.497Z,4.47
2023-04-19T07:39:50.151Z,5.88
2023-04-19T07:44:51.970Z,3.42
2023-04-19T07:49:53.850Z,7.72
2023-04-19T07:54:55.769Z,9.65
2023-04-19T07:59:59.307Z,4.65
2023-04-19T08:05:02.424Z,4.72
2023-04-19T08:10:05.787Z,3.38
2023-04-19T08:20:13.124Z,3.47
2023-04-19T08:25:14.782Z,7.32
2023-04-19T08:30:16.568Z,6.57
2023-04-19T08:35:18.259Z,12.60
2023-04-19T08:40:20.082Z,6.05
2023-04-19T08:45:28.650Z,3.50
2023-04-19T08:50:35.895Z,6.07
2023-04-19T08:56:06.906Z,6.43
2023-04-19T09:01:15.038Z,7.75
2023-04-19T09:06:28.465Z,8.63
2023-04-19T09:11:40.165Z,9.70
2023-04-19T09:16:43.043Z,3.70
2023-04-19T09:21:44.770Z,7.80
2023-04-19T09:26:57.849Z,5.18
2023-04-19T09:32:00.089Z,8.93
2023-04-19T09:37:21.501Z,6.18
2023-04-19T09:43:04.365Z,4.43
2023-04-19T09:48:08.214Z,8.05
2023-04-19T09:53:10.942Z,6.75
2023-04-19T09:58:12.656Z,7.03
2023-04-19T10:03:16.181Z,7.97
2023-04-19T10:08:20.224Z,6.60
2023-04-19T10:13:26.732Z,4.38
2023-04-19T10:18:29.704Z,6.97
2023-04-19T10:23:32.720Z,7.47
2023-04-19T10:28:36.245Z,3.38
2023-04-19T10:33:39.294Z,5.07
2023-04-19T10:38:47.305Z,3.45
2023-04-19T10:44:10.602Z,4.28
2023-04-19T10:49:13.734Z,8.02
2023-04-19T10:54:31.553Z,7.00
2023-04-19T10:59:38.233Z,6.97
2023-04-19T11:04:49.012Z,6.50
2023-04-19T11:09:51.925Z,12.32
2023-04-19T11:14:57.705Z,4.13
2023-04-19T11:20:09.407Z,6.75
2023-04-19T11:25:21.911Z,7.15
2023-04-19T11:30:29.607Z,7.35
2023-04-19T11:35:31.506Z,4.32
2023-04-19T11:40:33.469Z,4.28
2023-04-19T11:45:39.664Z,4.43
2023-04-19T11:50:43.870Z,8.65
2023-04-19T11:55:47.792Z,3.55
2023-04-19T12:00:49.445Z,6.78
2023-04-19T12:05:59.075Z,7.82
2023-04-19T12:11:03.164Z,7.88
2023-04-19T12:16:05.425Z,7.32
2023-04-19T12:21:07.207Z,4.90
2023-04-19T12:26:08.866Z,3.88
2023-04-19T12:31:10.591Z,5.80
2023-04-19T12:36:12.696Z,4.80
2023-04-19T12:41:15.585Z,7.28
2023-04-19T12:46:17.321Z,5.00
2023-04-19T12:51:18.955Z,6.88
2023-04-19T12:56:21.358Z,4.88
2023-04-19T13:01:23.668Z,6.03
2023-04-19T13:06:26.102Z,3.80
2023-04-19T13:11:27.741Z,9.57
2023-04-19T13:16:29.494Z,3.58
2023-04-19T13:21:31.396Z,4.18
2023-04-19T13:26:34.441Z,7.55
2023-04-19T13:31:36.173Z,6.57
2023-04-19T13:36:37.844Z,4.20
2023-04-19T13:41:39.508Z,7.35
2023-04-19T13:46:41.156Z,4.65
2023-04-19T13:51:50.230Z,5.68
2023-04-19T13:56:52.719Z,6.90
2023-04-19T14:01:56.129Z,9.68
2023-04-19T14:06:57.866Z,10.52
2023-04-19T14:12:00.177Z,6.35
2023-04-19T14:17:01.977Z,7.28
2023-04-19T14:22:03.658Z,12.95
2023-04-19T14:27:11.115Z,7.47
2023-04-19T14:32:25.030Z,6.25
2023-04-19T14:37:28.538Z,4.97
2023-04-19T14:42:30.164Z,6.95
2023-04-19T14:47:31.808Z,10.25
2023-04-19T14:52:33.553Z,6.63
2023-04-19T14:57:36.041Z,13.48
2023-04-19T15:02:37.938Z,8.43
2023-04-19T15:07:39.701Z,5.50
2023-04-19T15:12:41.355Z,6.05
2023-04-19T15:17:43.411Z,8.77
2023-04-19T15:22:45.189Z,4.25
2023-04-19T15:27:46.797Z,6.60
2023-04-19T15:32:48.549Z,5.53
2023-04-19T15:37:50.174Z,6.35
2023-04-19T15:42:51.832Z,5.93
2023-04-19T15:47:53.588Z,6.25
2023-04-19T15:52:55.309Z,6.70
2023-04-19T15:57:57.058Z,5.93
2023-04-19T16:02:58.922Z,7.53
2023-04-19T16:08:11.630Z,8.00
2023-04-19T16:13:13.662Z,6.65
2023-04-19T16:18:15.545Z,7.45
2023-04-19T16:23:17.242Z,6.55
2023-04-19T16:28:19.840Z,7.15
2023-04-19T16:33:21.573Z,5.60
2023-04-19T16:38:23.240Z,6.65
2023-04-19T16:43:24.900Z,5.60
2023-04-19T16:48:27.094Z,5.50
2023-04-19T16:53:28.716Z,8.32
2023-04-19T16:58:30.968Z,11.48
2023-04-19T17:03:32.938Z,5.88
2023-04-19T17:08:34.892Z,7.80
2023-04-19T17:13:37.751Z,7.45
2023-04-19T17:18:39.398Z,8.73
2023-04-19T17:23:40.997Z,7.15
2023-04-19T17:28:42.646Z,8.02
2023-04-19T17:33:44.327Z,11.15
2023-04-19T17:38:45.961Z,10.27
2023-04-19T17:43:50.581Z,7.72
2023-04-19T17:48:52.253Z,8.00
2023-04-19T17:53:53.886Z,7.05
2023-04-19T17:58:55.576Z,7.45
2023-04-19T18:03:57.391Z,5.72
2023-04-19T18:08:59.214Z,7.97
2023-04-19T18:14:00.846Z,13.18
2023-04-19T18:19:02.509Z,6.25
2023-04-19T18:24:04.450Z,6.53
2023-04-19T18:29:06.207Z,7.57
2023-04-19T18:34:08.318Z,6.82
2023-04-19T18:39:13.173Z,7.47
2023-04-19T18:44:38.989Z,5.75
2023-04-19T18:49:36.393Z,8.65
2023-04-19T18:54:38.050Z,7.65
2023-04-19T18:59:41.060Z,10.15
2023-04-19T19:04:52.235Z,14.65
2023-04-19T19:10:01.717Z,11.93
2023-04-19T19:15:06.412Z,12.25
2023-04-19T19:20:09.905Z,9.00
2023-04-19T19:25:12.118Z,11.85
2023-04-19T19:30:14.683Z,8.48
2023-04-19T19:35:16.513Z,7.43
2023-04-19T19:40:20.910Z,10.32
2023-04-19T19:45:28.446Z,11.00
2023-04-19T19:55:34.606Z,15.63
2023-04-19T20:00:46.219Z,11.43
2023-04-19T20:05:49.881Z,8.20
2023-04-19T20:10:51.718Z,9.23
2023-04-19T20:15:53.451Z,7.60
2023-04-19T20:20:55.065Z,9.05
2023-04-19T20:25:57.498Z,8.20
2023-04-19T20:30:59.108Z,8.80
2023-04-19T20:36:01.899Z,8.90
2023-04-19T20:41:03.578Z,8.13
2023-04-19T20:46:06.997Z,9.73
2023-04-19T20:51:08.743Z,12.90
2023-04-19T20:56:10.458Z,10.27
2023-04-19T21:01:14.385Z,9.35
2023-04-19T21:06:16.004Z,10.77
2023-04-19T21:11:17.676Z,8.23
2023-04-19T21:16:19.324Z,14.82
2023-04-19T21:21:20.980Z,8.30
2023-04-19T21:26:22.615Z,9.20
2023-04-19T21:31:24.247Z,5.85
2023-04-19T21:36:26.657Z,6.32
2023-04-19T21:41:28.320Z,6.05
2023-04-19T21:46:29.984Z,6.65
2023-04-19T21:51:32.104Z,6.60
2023-04-19T21:56:33.778Z,5.53
2023-04-19T22:01:35.399Z,10.25
2023-04-19T22:06:37.238Z,6.40
2023-04-19T22:11:39.151Z,7.00
2023-04-19T22:16:42.270Z,6.75
2023-04-19T22:21:43.972Z,8.73
2023-04-19T22:26:45.757Z,9.13
2023-04-19T22:31:47.534Z,7.90
2023-04-19T22:36:49.254Z,7.82
2023-04-19T22:41:50.864Z,7.20
2023-04-19T22:46:52.493Z,7.82
2023-04-19T22:51:54.984Z,9.85
2023-04-19T22:56:56.795Z,8.63
2023-04-19T23:01:58.435Z,7.50
2023-04-19T23:07:00.105Z,6.93
2023-04-19T23:12:02.128Z,7.13
2023-04-19T23:17:03.744Z,7.25
2023-04-19T23:22:05.388Z,7.50
2023-04-19T23:27:07.048Z,8.95
2023-04-19T23:32:08.648Z,6.72
2023-04-19T23:37:11.998Z,6.07
2023-04-19T23:42:14.564Z,6.40
2023-04-19T23:47:16.349Z,6.40
2023-04-19T23:52:18.301Z,6.40
2023-04-19T23:57:19.956Z,6.65
